sensor_id;sensor_type;location;lat;lon;timestamp;P1;durP1;ratioP1;P2;durP2;ratioP2
21681;SDS011;11002;48.256;10.084;2024-03-23T00:55:51;3.13;;;1.40;;
21681;SDS011;11002;48.256;10.084;2024-03-23T00:58:18;2.13;;;1.55;;
21681;SDS011;11002;48.256;10.084;2024-03-23T01:00:45;5.28;;;1.80;;
21681;SDS011;11002;48.256;10.084;2024-03-23T01:03:11;3.58;;;1.83;;
21681;SDS011;11002;48.256;10.084;2024-03-23T01:05:38;2.85;;;1.75;;
21681;SDS011;11002;48.256;10.084;2024-03-23T01:08:05;5.85;;;2.38;;
21681;SDS011;11002;48.256;10.084;2024-03-23T01:10:32;3.15;;;1.88;;
21681;SDS011;11002;48.256;10.084;2024-03-23T01:13:00;1.70;;;1.60;;
21681;SDS011;11002;48.256;10.084;2024-03-23T01:15:27;4.18;;;1.52;;
21681;SDS011;11002;48.256;10.084;2024-03-23T01:17:53;2.03;;;1.60;;
21681;SDS011;11002;48.256;10.084;2024-03-23T01:20:21;1.92;;;1.40;;
21681;SDS011;11002;48.256;10.084;2024-03-23T01:22:47;3.47;;;1.60;;
21681;SDS011;11002;48.256;10.084;2024-03-23T01:25:14;2.08;;;1.45;;
21681;SDS011;11002;48.256;10.084;2024-03-23T01:27:40;3.00;;;1.50;;
21681;SDS011;11002;48.256;10.084;2024-03-23T01:30:09;1.70;;;1.50;;
21681;SDS011;11002;48.256;10.084;2024-03-23T01:32:35;1.85;;;1.60;;
21681;SDS011;11002;48.256;10.084;2024-03-23T01:35:03;2.97;;;1.67;;
21681;SDS011;11002;48.256;10.084;2024-03-23T01:37:32;3.85;;;1.40;;
21681;SDS011;11002;48.256;10.084;2024-03-23T01:40:00;2.15;;;1.50;;
21681;SDS011;11002;48.256;10.084;2024-03-23T01:42:26;3.42;;;1.60;;
21681;SDS011;11002;48.256;10.084;2024-03-23T01:44:53;1.70;;;1.60;;
21681;SDS011;11002;48.256;10.084;2024-03-23T01:47:21;4.95;;;1.85;;
21681;SDS011;11002;48.256;10.084;2024-03-23T01:49:48;2.60;;;1.50;;
21681;SDS011;11002;48.256;10.084;2024-03-23T01:52:14;2.00;;;1.23;;
21681;SDS011;11002;48.256;10.084;2024-03-23T01:54:42;3.45;;;1.35;;
21681;SDS011;11002;48.256;10.084;2024-03-23T01:57:09;1.55;;;1.33;;
21681;SDS011;11002;48.256;10.084;2024-03-23T01:59:36;2.22;;;1.38;;
21681;SDS011;11002;48.256;10.084;2024-03-23T02:02:02;2.25;;;1.45;;
21681;SDS011;11002;48.256;10.084;2024-03-23T02:04:31;2.35;;;1.50;;
21681;SDS011;11002;48.256;10.084;2024-03-23T02:06:58;2.00;;;1.33;;
21681;SDS011;11002;48.256;10.084;2024-03-23T02:09:25;1.73;;;1.45;;
21681;SDS011;11002;48.256;10.084;2024-03-23T02:11:51;3.78;;;1.83;;
21681;SDS011;11002;48.256;10.084;2024-03-23T02:14:18;1.42;;;1.27;;
21681;SDS011;11002;48.256;10.084;2024-03-23T02:16:44;1.75;;;1.50;;
21681;SDS011;11002;48.256;10.084;2024-03-23T02:19:12;2.00;;;1.20;;
21681;SDS011;11002;48.256;10.084;2024-03-23T02:21:40;2.03;;;1.33;;
21681;SDS011;11002;48.256;10.084;2024-03-23T02:24:08;1.80;;;1.38;;
21681;SDS011;11002;48.256;10.084;2024-03-23T02:26:35;4.03;;;1.50;;
21681;SDS011;11002;48.256;10.084;2024-03-23T02:29:02;2.28;;;1.50;;
21681;SDS011;11002;48.256;10.084;2024-03-23T02:31:28;2.72;;;1.50;;
21681;SDS011;11002;48.256;10.084;2024-03-23T02:33:55;1.50;;;1.27;;
21681;SDS011;11002;48.256;10.084;2024-03-23T02:36:21;1.50;;;1.10;;
21681;SDS011;11002;48.256;10.084;2024-03-23T02:38:49;1.63;;;1.10;;
21681;SDS011;11002;48.256;10.084;2024-03-23T02:41:16;2.05;;;1.48;;
21681;SDS011;11002;48.256;10.084;2024-03-23T02:43:48;1.55;;;1.20;;
21681;SDS011;11002;48.256;10.084;2024-03-23T02:46:15;3.67;;;1.10;;
21681;SDS011;11002;48.256;10.084;2024-03-23T02:48:42;2.30;;;1.25;;
21681;SDS011;11002;48.256;10.084;2024-03-23T02:51:08;2.85;;;1.40;;
21681;SDS011;11002;48.256;10.084;2024-03-23T02:53:36;2.40;;;1.45;;
21681;SDS011;11002;48.256;10.084;2024-03-23T02:56:02;2.35;;;1.50;;
21681;SDS011;11002;48.256;10.084;2024-03-23T02:58:31;3.15;;;1.67;;
21681;SDS011;11002;48.256;10.084;2024-03-23T03:00:57;1.95;;;1.55;;
21681;SDS011;11002;48.256;10.084;2024-03-23T03:03:25;1.48;;;1.38;;
21681;SDS011;11002;48.256;10.084;2024-03-23T03:05:54;2.03;;;1.58;;
21681;SDS011;11002;48.256;10.084;2024-03-23T03:08:22;4.88;;;1.42;;
21681;SDS011;11002;48.256;10.084;2024-03-23T03:10:48;2.08;;;1.42;;
21681;SDS011;11002;48.256;10.084;2024-03-23T03:13:15;1.45;;;1.20;;
21681;SDS011;11002;48.256;10.084;2024-03-23T03:15:43;1.63;;;1.10;;
21681;SDS011;11002;48.256;10.084;2024-03-23T03:18:10;2.08;;;1.20;;
21681;SDS011;11002;48.256;10.084;2024-03-23T03:20:37;1.30;;;1.20;;
21681;SDS011;11002;48.256;10.084;2024-03-23T03:23:05;2.88;;;1.77;;
21681;SDS011;11002;48.256;10.084;2024-03-23T03:25:31;1.20;;;1.10;;
21681;SDS011;11002;48.256;10.084;2024-03-23T03:27:59;5.07;;;1.17;;
21681;SDS011;11002;48.256;10.084;2024-03-23T03:30:25;2.15;;;1.42;;
21681;SDS011;11002;48.256;10.084;2024-03-23T03:32:54;3.05;;;1.10;;
21681;SDS011;11002;48.256;10.084;2024-03-23T03:35:20;1.42;;;1.10;;
21681;SDS011;11002;48.256;10.084;2024-03-23T03:37:48;1.30;;;0.93;;
21681;SDS011;11002;48.256;10.084;2024-03-23T03:40:14;1.00;;;0.90;;
21681;SDS011;11002;48.256;10.084;2024-03-23T03:42:41;2.00;;;1.52;;
21681;SDS011;11002;48.256;10.084;2024-03-23T03:45:08;1.58;;;1.20;;
21681;SDS011;11002;48.256;10.084;2024-03-23T03:47:35;1.38;;;1.10;;
21681;SDS011;11002;48.256;10.084;2024-03-23T03:50:03;1.52;;;1.02;;
21681;SDS011;11002;48.256;10.084;2024-03-23T03:52:30;1.50;;;1.30;;
21681;SDS011;11002;48.256;10.084;2024-03-23T03:55:00;1.35;;;1.25;;
21681;SDS011;11002;48.256;10.084;2024-03-23T03:57:29;6.38;;;1.08;;
21681;SDS011;11002;48.256;10.084;2024-03-23T03:59:56;2.03;;;1.17;;
21681;SDS011;11002;48.256;10.084;2024-03-23T04:02:22;1.13;;;0.90;;
21681;SDS011;11002;48.256;10.084;2024-03-23T04:04:49;1.90;;;1.40;;
21681;SDS011;11002;48.256;10.084;2024-03-23T04:07:17;1.48;;;1.20;;
21681;SDS011;11002;48.256;10.084;2024-03-23T04:09:45;1.67;;;1.08;;
21681;SDS011;11002;48.256;10.084;2024-03-23T04:12:12;1.80;;;1.10;;
21681;SDS011;11002;48.256;10.084;2024-03-23T04:14:39;1.65;;;1.13;;
21681;SDS011;11002;48.256;10.084;2024-03-23T04:17:05;2.35;;;1.17;;
21681;SDS011;11002;48.256;10.084;2024-03-23T04:19:33;2.72;;;1.30;;
21681;SDS011;11002;48.256;10.084;2024-03-23T04:21:59;2.25;;;1.38;;
21681;SDS011;11002;48.256;10.084;2024-03-23T04:24:28;3.70;;;1.05;;
21681;SDS011;11002;48.256;10.084;2024-03-23T04:26:54;0.95;;;0.90;;
21681;SDS011;11002;48.256;10.084;2024-03-23T04:29:21;2.80;;;1.60;;
21681;SDS011;11002;48.256;10.084;2024-03-23T04:31:47;1.17;;;1.08;;
21681;SDS011;11002;48.256;10.084;2024-03-23T04:34:14;1.67;;;1.15;;
21681;SDS011;11002;48.256;10.084;2024-03-23T04:36:41;1.70;;;1.30;;
21681;SDS011;11002;48.256;10.084;2024-03-23T04:39:08;1.15;;;1.02;;
21681;SDS011;11002;48.256;10.084;2024-03-23T04:41:37;2.30;;;1.10;;
21681;SDS011;11002;48.256;10.084;2024-03-23T04:44:04;3.05;;;1.38;;
21681;SDS011;11002;48.256;10.084;2024-03-23T04:46:33;2.50;;;1.30;;
21681;SDS011;11002;48.256;10.084;2024-03-23T04:49:00;1.77;;;1.10;;
21681;SDS011;11002;48.256;10.084;2024-03-23T04:51:34;1.83;;;1.30;;
21681;SDS011;11002;48.256;10.084;2024-03-23T04:54:03;1.20;;;0.82;;
21681;SDS011;11002;48.256;10.084;2024-03-23T04:56:30;2.20;;;1.50;;
21681;SDS011;11002;48.256;10.084;2024-03-23T04:58:59;1.15;;;1.00;;
21681;SDS011;11002;48.256;10.084;2024-03-23T05:01:27;2.13;;;1.10;;
21681;SDS011;11002;48.256;10.084;2024-03-23T05:03:54;2.08;;;1.25;;
21681;SDS011;11002;48.256;10.084;2024-03-23T05:06:20;1.85;;;1.00;;
21681;SDS011;11002;48.256;10.084;2024-03-23T05:08:47;1.77;;;0.98;;
21681;SDS011;11002;48.256;10.084;2024-03-23T05:11:15;1.63;;;0.90;;
21681;SDS011;11002;48.256;10.084;2024-03-23T05:13:42;1.38;;;1.00;;
21681;SDS011;11002;48.256;10.084;2024-03-23T05:16:10;2.10;;;1.55;;
21681;SDS011;11002;48.256;10.084;2024-03-23T05:18:37;2.72;;;1.40;;
21681;SDS011;11002;48.256;10.084;2024-03-23T05:21:03;1.27;;;1.08;;
21681;SDS011;11002;48.256;10.084;2024-03-23T05:23:31;3.00;;;1.40;;
21681;SDS011;11002;48.256;10.084;2024-03-23T05:25:57;1.52;;;0.90;;
21681;SDS011;11002;48.256;10.084;2024-03-23T05:28:24;2.15;;;1.33;;
21681;SDS011;11002;48.256;10.084;2024-03-23T05:30:50;2.47;;;1.35;;
21681;SDS011;11002;48.256;10.084;2024-03-23T05:33:19;3.60;;;1.40;;
21681;SDS011;11002;48.256;10.084;2024-03-23T05:35:46;3.22;;;1.10;;
21681;SDS011;11002;48.256;10.084;2024-03-23T05:38:13;1.55;;;1.23;;
21681;SDS011;11002;48.256;10.084;2024-03-23T05:40:39;3.33;;;1.17;;
21681;SDS011;11002;48.256;10.084;2024-03-23T05:43:07;1.38;;;1.23;;
21681;SDS011;11002;48.256;10.084;2024-03-23T05:45:34;1.55;;;1.10;;
21681;SDS011;11002;48.256;10.084;2024-03-23T05:48:02;1.92;;;1.25;;
21681;SDS011;11002;48.256;10.084;2024-03-23T05:50:29;1.35;;;1.10;;
21681;SDS011;11002;48.256;10.084;2024-03-23T05:52:57;1.25;;;0.90;;
21681;SDS011;11002;48.256;10.084;2024-03-23T05:55:23;1.88;;;1.40;;
21681;SDS011;11002;48.256;10.084;2024-03-23T05:57:50;1.30;;;1.10;;
21681;SDS011;11002;48.256;10.084;2024-03-23T06:00:16;1.30;;;0.90;;
21681;SDS011;11002;48.256;10.084;2024-03-23T06:02:44;2.13;;;1.25;;
21681;SDS011;11002;48.256;10.084;2024-03-23T06:05:10;2.28;;;1.27;;
21681;SDS011;11002;48.256;10.084;2024-03-23T06:07:39;1.45;;;0.95;;
21681;SDS011;11002;48.256;10.084;2024-03-23T06:10:06;1.58;;;1.10;;
21681;SDS011;11002;48.256;10.084;2024-03-23T06:12:34;1.27;;;1.00;;
21681;SDS011;11002;48.256;10.084;2024-03-23T06:15:00;1.88;;;1.10;;
21681;SDS011;11002;48.256;10.084;2024-03-23T06:17:27;2.78;;;1.00;;
21681;SDS011;11002;48.256;10.084;2024-03-23T06:19:53;1.35;;;1.25;;
21681;SDS011;11002;48.256;10.084;2024-03-23T06:22:21;1.65;;;1.02;;
21681;SDS011;11002;48.256;10.084;2024-03-23T06:24:48;1.10;;;0.98;;
21681;SDS011;11002;48.256;10.084;2024-03-23T06:27:15;1.58;;;1.33;;
21681;SDS011;11002;48.256;10.084;2024-03-23T06:29:42;1.80;;;1.20;;
21681;SDS011;11002;48.256;10.084;2024-03-23T06:32:09;1.55;;;1.45;;
21681;SDS011;11002;48.256;10.084;2024-03-23T06:34:35;2.80;;;1.60;;
21681;SDS011;11002;48.256;10.084;2024-03-23T06:37:02;1.20;;;1.10;;
21681;SDS011;11002;48.256;10.084;2024-03-23T06:39:29;2.78;;;1.15;;
21681;SDS011;11002;48.256;10.084;2024-03-23T06:41:57;1.90;;;1.60;;
21681;SDS011;11002;48.256;10.084;2024-03-23T06:44:24;1.58;;;1.27;;
21681;SDS011;11002;48.256;10.084;2024-03-23T06:46:51;1.80;;;1.58;;
21681;SDS011;11002;48.256;10.084;2024-03-23T06:49:17;1.92;;;1.42;;
21681;SDS011;11002;48.256;10.084;2024-03-23T06:51:45;2.80;;;1.63;;
21681;SDS011;11002;48.256;10.084;2024-03-23T06:54:11;1.60;;;1.30;;
21681;SDS011;11002;48.256;10.084;2024-03-23T06:56:39;1.60;;;1.40;;
21681;SDS011;11002;48.256;10.084;2024-03-23T06:59:06;1.20;;;1.10;;
21681;SDS011;11002;48.256;10.084;2024-03-23T07:01:34;1.63;;;1.40;;
21681;SDS011;11002;48.256;10.084;2024-03-23T07:04:00;3.15;;;1.50;;
21681;SDS011;11002;48.256;10.084;2024-03-23T07:06:28;2.67;;;1.95;;
21681;SDS011;11002;48.256;10.084;2024-03-23T07:08:54;2.35;;;1.60;;
21681;SDS011;11002;48.256;10.084;2024-03-23T07:11:22;1.45;;;1.23;;
21681;SDS011;11002;48.256;10.084;2024-03-23T07:13:49;1.77;;;1.67;;
21681;SDS011;11002;48.256;10.084;2024-03-23T07:16:19;2.25;;;1.02;;
21681;SDS011;11002;48.256;10.084;2024-03-23T07:18:45;2.88;;;1.00;;
21681;SDS011;11002;48.256;10.084;2024-03-23T07:21:14;1.60;;;0.98;;
21681;SDS011;11002;48.256;10.084;2024-03-23T07:23:41;1.50;;;1.10;;
21681;SDS011;11002;48.256;10.084;2024-03-23T07:26:10;2.15;;;1.23;;
21681;SDS011;11002;48.256;10.084;2024-03-23T07:28:37;1.73;;;1.10;;
21681;SDS011;11002;48.256;10.084;2024-03-23T07:31:09;1.20;;;0.90;;
21681;SDS011;11002;48.256;10.084;2024-03-23T07:33:42;1.13;;;0.98;;
21681;SDS011;11002;48.256;10.084;2024-03-23T07:36:10;0.63;;;0.63;;
21681;SDS011;11002;48.256;10.084;2024-03-23T07:38:36;0.90;;;0.80;;
21681;SDS011;11002;48.256;10.084;2024-03-23T07:41:06;2.00;;;0.98;;
21681;SDS011;11002;48.256;10.084;2024-03-23T07:43:34;1.20;;;0.90;;
21681;SDS011;11002;48.256;10.084;2024-03-23T07:46:01;1.05;;;0.85;;
21681;SDS011;11002;48.256;10.084;2024-03-23T07:48:29;0.80;;;0.70;;
21681;SDS011;11002;48.256;10.084;2024-03-23T07:51:02;1.35;;;0.93;;
21681;SDS011;11002;48.256;10.084;2024-03-23T07:53:29;2.30;;;1.17;;
21681;SDS011;11002;48.256;10.084;2024-03-23T07:55:58;1.35;;;1.25;;
21681;SDS011;11002;48.256;10.084;2024-03-23T07:58:25;1.30;;;1.10;;
21681;SDS011;11002;48.256;10.084;2024-03-23T08:00:52;3.40;;;1.80;;
21681;SDS011;11002;48.256;10.084;2024-03-23T08:03:20;2.83;;;1.85;;
21681;SDS011;11002;48.256;10.084;2024-03-23T08:05:46;4.47;;;1.30;;
21681;SDS011;11002;48.256;10.084;2024-03-23T08:08:15;4.30;;;1.80;;
21681;SDS011;11002;48.256;10.084;2024-03-23T08:10:48;1.45;;;1.00;;
21681;SDS011;11002;48.256;10.084;2024-03-23T08:15:41;1.27;;;0.80;;
21681;SDS011;11002;48.256;10.084;2024-03-23T08:18:09;0.77;;;0.68;;
21681;SDS011;11002;48.256;10.084;2024-03-23T08:20:36;0.57;;;0.52;;
21681;SDS011;11002;48.256;10.084;2024-03-23T08:23:04;0.93;;;0.60;;
21681;SDS011;11002;48.256;10.084;2024-03-23T08:25:33;0.50;;;0.50;;
21681;SDS011;11002;48.256;10.084;2024-03-23T08:28:00;0.88;;;0.50;;
21681;SDS011;11002;48.256;10.084;2024-03-23T08:30:27;0.50;;;0.50;;
21681;SDS011;11002;48.256;10.084;2024-03-23T08:32:55;0.55;;;0.30;;
21681;SDS011;11002;48.256;10.084;2024-03-23T08:35:21;0.43;;;0.43;;
21681;SDS011;11002;48.256;10.084;2024-03-23T08:37:48;0.28;;;0.28;;
21681;SDS011;11002;48.256;10.084;2024-03-23T08:40:15;0.28;;;0.20;;
21681;SDS011;11002;48.256;10.084;2024-03-23T08:42:43;0.30;;;0.30;;
21681;SDS011;11002;48.256;10.084;2024-03-23T08:45:10;0.20;;;0.20;;
21681;SDS011;11002;48.256;10.084;2024-03-23T08:47:37;0.52;;;0.25;;
21681;SDS011;11002;48.256;10.084;2024-03-23T08:50:04;0.40;;;0.30;;
21681;SDS011;11002;48.256;10.084;2024-03-23T08:52:32;0.40;;;0.40;;
21681;SDS011;11002;48.256;10.084;2024-03-23T08:54:58;0.30;;;0.30;;
21681;SDS011;11002;48.256;10.084;2024-03-23T08:57:25;0.20;;;0.20;;
21681;SDS011;11002;48.256;10.084;2024-03-23T08:59:53;0.25;;;0.25;;
21681;SDS011;11002;48.256;10.084;2024-03-23T09:02:20;0.10;;;0.10;;
21681;SDS011;11002;48.256;10.084;2024-03-23T09:04:46;0.38;;;0.10;;
21681;SDS011;11002;48.256;10.084;2024-03-23T09:07:13;0.63;;;0.32;;
21681;SDS011;11002;48.256;10.084;2024-03-23T09:09:40;0.13;;;0.13;;
21681;SDS011;11002;48.256;10.084;2024-03-23T09:12:07;0.20;;;0.20;;
21681;SDS011;11002;48.256;10.084;2024-03-23T09:14:33;0.25;;;0.20;;
21681;SDS011;11002;48.256;10.084;2024-03-23T09:17:04;0.10;;;0.10;;
21681;SDS011;11002;48.256;10.084;2024-03-23T09:19:31;0.13;;;0.08;;
21681;SDS011;11002;48.256;10.084;2024-03-23T09:21:58;0.35;;;0.10;;
21681;SDS011;11002;48.256;10.084;2024-03-23T09:24:24;0.15;;;0.15;;
21681;SDS011;11002;48.256;10.084;2024-03-23T09:26:51;0.40;;;0.30;;
21681;SDS011;11002;48.256;10.084;2024-03-23T09:29:18;0.65;;;0.50;;
21681;SDS011;11002;48.256;10.084;2024-03-23T09:31:45;0.50;;;0.30;;
21681;SDS011;11002;48.256;10.084;2024-03-23T09:34:13;1.60;;;0.40;;
21681;SDS011;11002;48.256;10.084;2024-03-23T09:36:40;0.50;;;0.40;;
21681;SDS011;11002;48.256;10.084;2024-03-23T09:39:07;0.30;;;0.30;;
21681;SDS011;11002;48.256;10.084;2024-03-23T09:41:34;0.80;;;0.35;;
21681;SDS011;11002;48.256;10.084;2024-03-23T09:44:01;1.17;;;0.30;;
21681;SDS011;11002;48.256;10.084;2024-03-23T09:46:28;0.35;;;0.20;;
21681;SDS011;11002;48.256;10.084;2024-03-23T09:48:59;0.43;;;0.43;;
21681;SDS011;11002;48.256;10.084;2024-03-23T09:51:31;0.65;;;0.40;;
21681;SDS011;11002;48.256;10.084;2024-03-23T09:53:57;2.70;;;0.73;;
21681;SDS011;11002;48.256;10.084;2024-03-23T09:56:24;1.63;;;0.90;;
21681;SDS011;11002;48.256;10.084;2024-03-23T09:58:50;2.33;;;1.20;;
21681;SDS011;11002;48.256;10.084;2024-03-23T10:01:18;2.67;;;1.23;;
21681;SDS011;11002;48.256;10.084;2024-03-23T10:03:44;0.50;;;0.50;;
21681;SDS011;11002;48.256;10.084;2024-03-23T10:06:12;3.60;;;1.08;;
21681;SDS011;11002;48.256;10.084;2024-03-23T10:08:40;2.10;;;0.70;;
21681;SDS011;11002;48.256;10.084;2024-03-23T10:11:12;0.75;;;0.40;;
21681;SDS011;11002;48.256;10.084;2024-03-23T10:13:39;0.98;;;0.60;;
21681;SDS011;11002;48.256;10.084;2024-03-23T10:16:09;1.95;;;0.77;;
21681;SDS011;11002;48.256;10.084;2024-03-23T10:18:38;1.27;;;0.60;;
21681;SDS011;11002;48.256;10.084;2024-03-23T10:21:06;1.45;;;0.73;;
21681;SDS011;11002;48.256;10.084;2024-03-23T10:23:34;0.88;;;0.50;;
21681;SDS011;11002;48.256;10.084;2024-03-23T10:26:16;5.18;;;0.90;;
21681;SDS011;11002;48.256;10.084;2024-03-23T10:28:50;2.58;;;0.70;;
21681;SDS011;11002;48.256;10.084;2024-03-23T10:31:18;2.58;;;0.50;;
21681;SDS011;11002;48.256;10.084;2024-03-23T10:33:45;0.82;;;0.75;;
21681;SDS011;11002;48.256;10.084;2024-03-23T10:36:13;3.20;;;0.77;;
21681;SDS011;11002;48.256;10.084;2024-03-23T10:38:40;9.32;;;1.00;;
21681;SDS011;11002;48.256;10.084;2024-03-23T10:41:08;1.85;;;1.00;;
21681;SDS011;11002;48.256;10.084;2024-03-23T10:43:37;0.70;;;0.60;;
21681;SDS011;11002;48.256;10.084;2024-03-23T10:46:04;1.95;;;0.98;;
21681;SDS011;11002;48.256;10.084;2024-03-23T10:48:31;0.80;;;0.75;;
21681;SDS011;11002;48.256;10.084;2024-03-23T10:50:59;2.55;;;1.00;;
21681;SDS011;11002;48.256;10.084;2024-03-23T10:53:26;2.15;;;0.52;;
21681;SDS011;11002;48.256;10.084;2024-03-23T10:55:55;2.72;;;1.02;;
21681;SDS011;11002;48.256;10.084;2024-03-23T10:58:23;1.05;;;0.95;;
21681;SDS011;11002;48.256;10.084;2024-03-23T11:00:54;0.93;;;0.88;;
21681;SDS011;11002;48.256;10.084;2024-03-23T11:03:30;1.63;;;0.90;;
21681;SDS011;11002;48.256;10.084;2024-03-23T11:06:02;2.67;;;0.90;;
21681;SDS011;11002;48.256;10.084;2024-03-23T11:08:29;1.33;;;0.80;;
21681;SDS011;11002;48.256;10.084;2024-03-23T11:11:14;2.17;;;1.30;;
21681;SDS011;11002;48.256;10.084;2024-03-23T11:13:42;1.55;;;1.10;;
21681;SDS011;11002;48.256;10.084;2024-03-23T11:16:14;3.92;;;1.30;;
21681;SDS011;11002;48.256;10.084;2024-03-23T11:18:41;3.00;;;1.10;;
21681;SDS011;11002;48.256;10.084;2024-03-23T11:21:09;2.65;;;0.95;;
21681;SDS011;11002;48.256;10.084;2024-03-23T11:23:35;0.82;;;0.77;;
21681;SDS011;11002;48.256;10.084;2024-03-23T11:26:06;2.67;;;0.98;;
21681;SDS011;11002;48.256;10.084;2024-03-23T11:28:33;2.42;;;1.15;;
21681;SDS011;11002;48.256;10.084;2024-03-23T11:31:00;4.90;;;1.17;;
21681;SDS011;11002;48.256;10.084;2024-03-23T11:33:28;1.77;;;0.70;;
21681;SDS011;11002;48.256;10.084;2024-03-23T11:35:55;2.08;;;0.95;;
21681;SDS011;11002;48.256;10.084;2024-03-23T11:38:22;2.30;;;1.10;;
21681;SDS011;11002;48.256;10.084;2024-03-23T11:40:49;2.08;;;1.10;;
21681;SDS011;11002;48.256;10.084;2024-03-23T11:43:16;1.33;;;0.98;;
21681;SDS011;11002;48.256;10.084;2024-03-23T11:45:44;1.67;;;0.90;;
21681;SDS011;11002;48.256;10.084;2024-03-23T11:48:12;2.83;;;1.30;;
21681;SDS011;11002;48.256;10.084;2024-03-23T11:50:42;5.78;;;1.25;;
21681;SDS011;11002;48.256;10.084;2024-03-23T11:53:13;4.20;;;1.30;;
21681;SDS011;11002;48.256;10.084;2024-03-23T11:55:42;1.48;;;1.20;;
21681;SDS011;11002;48.256;10.084;2024-03-23T11:58:12;4.57;;;1.08;;
21681;SDS011;11002;48.256;10.084;2024-03-23T12:00:40;3.38;;;0.70;;
21681;SDS011;11002;48.256;10.084;2024-03-23T12:03:06;4.30;;;1.00;;
21681;SDS011;11002;48.256;10.084;2024-03-23T12:05:35;1.67;;;0.90;;
21681;SDS011;11002;48.256;10.084;2024-03-23T12:08:21;3.10;;;1.17;;
21681;SDS011;11002;48.256;10.084;2024-03-23T12:10:50;1.15;;;0.88;;
21681;SDS011;11002;48.256;10.084;2024-03-23T12:13:23;3.63;;;0.77;;
21681;SDS011;11002;48.256;10.084;2024-03-23T12:15:51;2.08;;;0.80;;
21681;SDS011;11002;48.256;10.084;2024-03-23T12:18:23;1.10;;;0.75;;
21681;SDS011;11002;48.256;10.084;2024-03-23T12:20:52;1.40;;;0.60;;
21681;SDS011;11002;48.256;10.084;2024-03-23T12:23:19;0.75;;;0.40;;
21681;SDS011;11002;48.256;10.084;2024-03-23T12:25:48;1.23;;;0.70;;
21681;SDS011;11002;48.256;10.084;2024-03-23T12:28:15;1.48;;;0.50;;
21681;SDS011;11002;48.256;10.084;2024-03-23T12:30:42;1.17;;;0.68;;
21681;SDS011;11002;48.256;10.084;2024-03-23T12:33:08;1.77;;;0.80;;
21681;SDS011;11002;48.256;10.084;2024-03-23T12:35:36;1.85;;;0.73;;
21681;SDS011;11002;48.256;10.084;2024-03-23T12:38:02;1.27;;;0.63;;
21681;SDS011;11002;48.256;10.084;2024-03-23T12:40:31;1.13;;;0.65;;
21681;SDS011;11002;48.256;10.084;2024-03-23T12:42:58;4.57;;;0.70;;
21681;SDS011;11002;48.256;10.084;2024-03-23T12:45:25;2.85;;;0.90;;
21681;SDS011;11002;48.256;10.084;2024-03-23T12:47:52;1.42;;;0.60;;
21681;SDS011;11002;48.256;10.084;2024-03-23T12:50:19;1.00;;;0.57;;
21681;SDS011;11002;48.256;10.084;2024-03-23T12:52:45;1.90;;;0.77;;
21681;SDS011;11002;48.256;10.084;2024-03-23T12:55:13;3.88;;;0.47;;
21681;SDS011;11002;48.256;10.084;2024-03-23T12:57:40;5.10;;;0.57;;
21681;SDS011;11002;48.256;10.084;2024-03-23T13:00:08;1.27;;;0.60;;
21681;SDS011;11002;48.256;10.084;2024-03-23T13:02:36;1.65;;;0.50;;
21681;SDS011;11002;48.256;10.084;2024-03-23T13:05:04;5.55;;;0.50;;
21681;SDS011;11002;48.256;10.084;2024-03-23T13:07:31;0.85;;;0.32;;
21681;SDS011;11002;48.256;10.084;2024-03-23T13:09:59;0.63;;;0.50;;
21681;SDS011;11002;48.256;10.084;2024-03-23T13:12:25;1.13;;;0.50;;
21681;SDS011;11002;48.256;10.084;2024-03-23T13:14:53;1.65;;;0.50;;
21681;SDS011;11002;48.256;10.084;2024-03-23T13:17:20;0.68;;;0.40;;
21681;SDS011;11002;48.256;10.084;2024-03-23T13:19:47;4.00;;;0.88;;
21681;SDS011;11002;48.256;10.084;2024-03-23T13:22:13;2.30;;;0.50;;
21681;SDS011;11002;48.256;10.084;2024-03-23T13:24:40;3.00;;;0.88;;
21681;SDS011;11002;48.256;10.084;2024-03-23T13:27:06;1.80;;;0.82;;
21681;SDS011;11002;48.256;10.084;2024-03-23T13:29:35;4.10;;;0.98;;
21681;SDS011;11002;48.256;10.084;2024-03-23T13:32:04;3.40;;;1.10;;
21681;SDS011;11002;48.256;10.084;2024-03-23T13:34:32;1.92;;;0.90;;
21681;SDS011;11002;48.256;10.084;2024-03-23T13:36:58;2.28;;;0.77;;
21681;SDS011;11002;48.256;10.084;2024-03-23T13:39:26;1.98;;;0.70;;
21681;SDS011;11002;48.256;10.084;2024-03-23T13:41:53;3.55;;;0.85;;
21681;SDS011;11002;48.256;10.084;2024-03-23T13:44:21;4.15;;;0.95;;
21681;SDS011;11002;48.256;10.084;2024-03-23T13:46:47;2.47;;;0.90;;
21681;SDS011;11002;48.256;10.084;2024-03-23T13:49:24;4.32;;;1.27;;
21681;SDS011;11002;48.256;10.084;2024-03-23T13:51:52;1.13;;;0.60;;
21681;SDS011;11002;48.256;10.084;2024-03-23T13:54:20;3.65;;;0.77;;
21681;SDS011;11002;48.256;10.084;2024-03-23T13:56:47;4.88;;;1.10;;
21681;SDS011;11002;48.256;10.084;2024-03-23T13:59:15;3.13;;;1.08;;
21681;SDS011;11002;48.256;10.084;2024-03-23T14:01:42;2.85;;;0.82;;
21681;SDS011;11002;48.256;10.084;2024-03-23T14:04:10;3.38;;;0.70;;
21681;SDS011;11002;48.256;10.084;2024-03-23T14:06:38;2.97;;;1.10;;
21681;SDS011;11002;48.256;10.084;2024-03-23T14:09:07;0.80;;;0.52;;
21681;SDS011;11002;48.256;10.084;2024-03-23T14:11:34;2.97;;;0.90;;
21681;SDS011;11002;48.256;10.084;2024-03-23T14:14:01;1.50;;;0.93;;
21681;SDS011;11002;48.256;10.084;2024-03-23T14:16:28;2.92;;;1.00;;
21681;SDS011;11002;48.256;10.084;2024-03-23T14:18:56;1.60;;;0.77;;
21681;SDS011;11002;48.256;10.084;2024-03-23T14:21:22;2.67;;;0.85;;
21681;SDS011;11002;48.256;10.084;2024-03-23T14:23:51;2.40;;;0.52;;
21681;SDS011;11002;48.256;10.084;2024-03-23T14:26:17;2.47;;;1.20;;
21681;SDS011;11002;48.256;10.084;2024-03-23T14:28:44;2.00;;;0.77;;
21681;SDS011;11002;48.256;10.084;2024-03-23T14:31:11;1.30;;;0.60;;
21681;SDS011;11002;48.256;10.084;2024-03-23T14:33:38;3.00;;;0.93;;
21681;SDS011;11002;48.256;10.084;2024-03-23T14:36:11;0.65;;;0.65;;
21681;SDS011;11002;48.256;10.084;2024-03-23T14:38:38;3.15;;;0.80;;
21681;SDS011;11002;48.256;10.084;2024-03-23T14:41:06;3.47;;;0.90;;
21681;SDS011;11002;48.256;10.084;2024-03-23T14:43:33;1.20;;;0.57;;
21681;SDS011;11002;48.256;10.084;2024-03-23T14:46:06;3.38;;;0.73;;
21681;SDS011;11002;48.256;10.084;2024-03-23T14:48:34;1.65;;;0.85;;
21681;SDS011;11002;48.256;10.084;2024-03-23T14:51:01;1.13;;;0.60;;
21681;SDS011;11002;48.256;10.084;2024-03-23T14:53:30;1.65;;;0.70;;
21681;SDS011;11002;48.256;10.084;2024-03-23T14:55:56;2.50;;;0.82;;
21681;SDS011;11002;48.256;10.084;2024-03-23T14:58:26;5.90;;;1.08;;
21681;SDS011;11002;48.256;10.084;2024-03-23T15:00:53;2.60;;;0.70;;
21681;SDS011;11002;48.256;10.084;2024-03-23T15:03:26;3.40;;;1.40;;
21681;SDS011;11002;48.256;10.084;2024-03-23T15:05:53;3.80;;;0.98;;
21681;SDS011;11002;48.256;10.084;2024-03-23T15:08:21;1.25;;;0.70;;
21681;SDS011;11002;48.256;10.084;2024-03-23T15:10:48;3.20;;;0.52;;
21681;SDS011;11002;48.256;10.084;2024-03-23T15:13:15;2.88;;;0.60;;
21681;SDS011;11002;48.256;10.084;2024-03-23T15:15:43;3.13;;;0.75;;
21681;SDS011;11002;48.256;10.084;2024-03-23T15:18:11;3.67;;;0.50;;
21681;SDS011;11002;48.256;10.084;2024-03-23T15:20:38;4.30;;;2.10;;
21681;SDS011;11002;48.256;10.084;2024-03-23T15:23:05;1.13;;;0.65;;
21681;SDS011;11002;48.256;10.084;2024-03-23T15:25:31;1.13;;;0.50;;
21681;SDS011;11002;48.256;10.084;2024-03-23T15:27:59;0.95;;;0.40;;
21681;SDS011;11002;48.256;10.084;2024-03-23T15:30:25;0.63;;;0.43;;
21681;SDS011;11002;48.256;10.084;2024-03-23T15:32:55;1.08;;;0.38;;